Time;durP1;ratioP1;P1;durP2;ratioP2;P2;SDS_P1;SDS_P2;PMS_P1;PMS_P2;Temp;Humidity;BMP_temperature;BMP_pressure;BME280_temperature;BME280_humidity;BME280_pressure;Samples;Min_cycle;Max_cycle;Signal;HPM_P1;HPM_P2
2023/08/07 09:16:16;;;;;;;0.40;0.40;;;19.10;99.90;;;;;;4911697;28;1676800;-69
2023/08/07 09:18:50;;;;;;;0.30;0.30;;;17.50;99.90;;;;;;4982981;28;20213;-69
2023/08/07 09:21:17;;;;;;;0.30;0.30;;;17.30;99.90;;;;;;4986083;28;20208;-69
2023/08/07 09:23:44;;;;;;;0.40;0.40;;;17.40;99.90;;;;;;4998649;28;20665;-69
2023/08/07 09:26:12;;;;;;;0.40;0.40;;;18.60;99.90;;;;;;5004467;28;20196;-69
2023/08/07 09:28:39;;;;;;;0.40;0.40;;;19.80;99.90;;;;;;5002384;28;20255;-72
2023/08/07 09:31:08;;;;;;;0.40;0.40;;;20.70;99.90;;;;;;5009933;28;20612;-68
2023/08/07 09:33:36;;;;;;;1.42;1.40;;;21.10;99.90;;;;;;5007325;28;20205;-67
2023/08/07 09:36:04;;;;;;;0.40;0.40;;;21.10;99.90;;;;;;5008788;28;20189;-68
2023/08/07 09:38:32;;;;;;;0.40;0.40;;;22.10;99.90;;;;;;4995716;28;20290;-70
2023/08/07 09:41:03;;;;;;;0.47;0.47;;;24.60;99.90;;;;;;5019874;28;20189;-68
2023/08/07 09:43:35;;;;;;;0.60;0.60;;;27.30;99.90;;;;;;5016265;28;20554;-67
2023/08/07 09:46:07;;;;;;;0.80;0.80;;;26.90;99.90;;;;;;5002609;28;20185;-68
2023/08/07 09:48:43;;;;;;;0.80;0.80;;;26.80;99.90;;;;;;4986713;28;20700;-67
2023/08/07 09:51:10;;;;;;;0.80;0.80;;;24.40;99.90;;;;;;5003759;28;20216;-68
2023/08/07 09:53:38;;;;;;;0.70;0.70;;;22.60;99.90;;;;;;5001869;28;20200;-68
2023/08/07 09:56:06;;;;;;;0.70;0.70;;;20.80;99.90;;;;;;5004587;28;20197;-68
2023/08/07 09:58:33;;;;;;;0.80;0.80;;;19.70;99.90;;;;;;5002798;28;20216;-68
2023/08/07 10:01:04;;;;;;;0.70;0.70;;;19.60;99.90;;;;;;4989429;28;20689;-68
2023/08/07 10:03:32;;;;;;;0.70;0.70;;;23.00;99.90;;;;;;5003116;28;20219;-68
2023/08/07 10:05:59;;;;;;;0.80;0.80;;;25.90;99.90;;;;;;4988131;28;20201;-68
2023/08/07 10:08:28;;;;;;;0.80;0.80;;;27.60;99.90;;;;;;4987579;28;20384;-69
2023/08/07 10:10:54;;;;;;;0.90;0.90;;;26.20;99.90;;;;;;4998044;28;20291;-69
2023/08/07 10:13:23;;;;;;;0.98;0.98;;;26.90;99.90;;;;;;4998971;28;20665;-69
2023/08/07 10:16:05;;;;;;;0.90;0.90;;;27.30;99.90;;;;;;4986732;28;20783;-69
2023/08/07 10:18:33;;;;;;;1.00;1.00;;;26.40;99.90;;;;;;5000879;28;20296;-69
2023/08/07 10:21:02;;;;;;;0.90;0.90;;;24.20;99.90;;;;;;4986817;28;20197;-73
2023/08/07 10:23:30;;;;;;;1.00;1.00;;;22.80;99.90;;;;;;4985568;28;20220;-68
2023/08/07 10:25:58;;;;;;;1.00;1.00;;;21.80;99.90;;;;;;4988599;28;20232;-69
2023/08/07 10:28:26;;;;;;;0.93;0.93;;;23.10;99.90;;;;;;5001322;28;20319;-69
2023/08/07 10:30:57;;;;;;;1.00;1.00;;;25.10;99.90;;;;;;5003412;28;20549;-68
2023/08/07 10:33:24;;;;;;;1.05;1.05;;;26.30;99.90;;;;;;5004642;28;20575;-69
2023/08/07 10:35:52;;;;;;;1.00;1.00;;;26.90;99.90;;;;;;5002034;28;20219;-69
2023/08/07 10:38:23;;;;;;;1.10;1.10;;;26.80;99.90;;;;;;4987372;28;20692;-70
2023/08/07 10:41:17;;;;;;;1.38;1.38;;;27.00;99.90;;;;;;5013225;28;20319;-69
2023/08/07 10:43:45;;;;;;;1.30;1.30;;;27.30;99.90;;;;;;5016320;28;20744;-68
2023/08/07 10:46:15;;;;;;;1.20;1.20;;;26.80;99.90;;;;;;4999795;28;20201;-69
2023/08/07 10:48:46;;;;;;;1.40;1.40;;;25.70;99.90;;;;;;5015081;28;20252;-67
2023/08/07 10:51:15;;;;;;;1.23;1.23;;;25.40;99.90;;;;;;5012538;28;20203;-68
2023/08/07 10:53:48;;;;;;;1.20;1.20;;;26.20;99.90;;;;;;5012458;28;20228;-70
2023/08/07 10:56:15;;;;;;;1.33;1.33;;;27.50;99.90;;;;;;5011818;28;20200;-69
2023/08/07 10:58:52;;;;;;;1.42;1.40;;;26.20;99.90;;;;;;5000896;28;20252;-68
2023/08/07 11:01:29;;;;;;;6.60;2.80;;;26.80;99.90;;;;;;4998758;28;20866;-70
2023/08/07 11:04:05;;;;;;;2.78;2.50;;;26.70;99.90;;;;;;5011005;28;20215;-71
2023/08/07 11:06:38;;;;;;;3.88;2.40;;;26.70;99.90;;;;;;4982849;28;20201;-68
2023/08/07 11:09:09;;;;;;;3.25;2.65;;;26.50;99.90;;;;;;5025762;28;20579;-69
2023/08/07 11:11:40;;;;;;;4.57;2.70;;;26.00;99.90;;;;;;5031765;28;20200;-70
2023/08/07 11:14:12;;;;;;;3.17;2.78;;;25.30;99.90;;;;;;5016413;28;20279;-68
2023/08/07 11:16:40;;;;;;;6.57;3.40;;;23.70;99.90;;;;;;4997660;28;20254;-69
2023/08/07 11:19:08;;;;;;;6.57;3.28;;;23.10;99.90;;;;;;5008543;28;20258;-69
2023/08/07 11:21:36;;;;;;;5.55;2.95;;;24.70;99.90;;;;;;5013019;28;20189;-69
2023/08/07 11:24:04;;;;;;;5.35;3.33;;;25.40;99.90;;;;;;4994828;28;20220;-68
2023/08/07 11:26:31;;;;;;;5.85;3.25;;;25.40;99.90;;;;;;5013866;28;20278;-68
2023/08/07 11:28:58;;;;;;;2.83;2.53;;;26.30;99.90;;;;;;5006617;28;20668;-69
2023/08/07 11:31:25;;;;;;;4.97;3.28;;;27.00;99.90;;;;;;4996448;28;20673;-70
2023/08/07 11:33:54;;;;;;;6.95;2.97;;;25.80;99.90;;;;;;5005438;28;20224;-69
2023/08/07 11:36:22;;;;;;;5.25;3.08;;;24.60;99.90;;;;;;5006559;28;20203;-70
2023/08/07 11:38:49;;;;;;;5.85;2.58;;;25.00;99.90;;;;;;5005303;28;20611;-71
2023/08/07 11:41:18;;;;;;;2.47;2.28;;;25.00;99.90;;;;;;5002675;28;20193;-71
2023/08/07 11:43:45;;;;;;;4.25;2.67;;;25.80;99.90;;;;;;5009969;28;20864;-71
2023/08/07 11:46:14;;;;;;;3.90;2.55;;;25.50;99.90;;;;;;5008231;28;20201;-70
2023/08/07 11:48:43;;;;;;;7.18;2.65;;;23.70;99.90;;;;;;5007221;28;20205;-72
2023/08/07 11:51:11;;;;;;;6.30;2.63;;;22.60;99.90;;;;;;5000761;28;20201;-71
2023/08/07 11:53:40;;;;;;;2.63;2.30;;;23.00;99.90;;;;;;5000836;28;20204;-70
2023/08/07 11:56:09;;;;;;;3.13;2.35;;;23.60;99.90;;;;;;5006998;28;20193;-72
2023/08/07 11:58:38;;;;;;;5.95;2.53;;;24.30;99.90;;;;;;4986363;28;20290;-71
2023/08/07 12:01:26;;;;;;;3.00;2.38;;;24.60;99.90;;;;;;5005613;28;20197;-71
2023/08/07 12:04:06;;;;;;;4.25;2.58;;;24.40;99.90;;;;;;5002738;28;20217;-69
2023/08/07 12:06:35;;;;;;;5.38;2.88;;;24.70;99.90;;;;;;5003848;28;20208;-70
2023/08/07 12:09:02;;;;;;;4.13;2.85;;;24.30;99.90;;;;;;4986133;28;20679;-71
2023/08/07 12:11:30;;;;;;;5.15;2.30;;;24.60;99.90;;;;;;4987045;28;20200;-70
2023/08/07 12:14:03;;;;;;;4.65;2.53;;;24.40;99.90;;;;;;5003099;28;20235;-69
2023/08/07 12:16:34;;;;;;;2.75;2.47;;;24.10;99.90;;;;;;5002378;28;20239;-70
2023/08/07 12:19:03;;;;;;;5.13;2.35;;;24.00;99.90;;;;;;4986947;28;20216;-72
2023/08/07 12:21:33;;;;;;;3.50;2.60;;;24.10;99.90;;;;;;5011216;28;20699;-71
2023/08/07 12:24:00;;;;;;;4.82;2.80;;;23.90;99.90;;;;;;5015136;28;20761;-72
2023/08/07 12:26:27;;;;;;;4.43;2.58;;;24.30;99.90;;;;;;5001688;28;20208;-71
2023/08/07 12:28:54;;;;;;;3.00;2.47;;;24.40;99.90;;;;;;4994032;28;20192;-71
2023/08/07 12:31:21;;;;;;;4.25;2.50;;;24.70;99.90;;;;;;5011274;28;20193;-71
2023/08/07 12:33:48;;;;;;;3.08;2.40;;;24.20;99.90;;;;;;5002517;28;20199;-71
2023/08/07 12:36:16;;;;;;;5.32;2.70;;;23.60;99.90;;;;;;5016016;28;20607;-71
2023/08/07 12:38:47;;;;;;;4.25;3.00;;;22.90;99.90;;;;;;5008319;28;20216;-71
2023/08/07 12:41:14;;;;;;;2.50;2.30;;;22.20;99.90;;;;;;4998887;28;20208;-75
2023/08/07 12:43:44;;;;;;;3.45;2.78;;;21.90;99.90;;;;;;5008418;28;20231;-72
2023/08/07 12:46:11;;;;;;;4.03;2.85;;;22.10;99.90;;;;;;4988151;28;20331;-70
2023/08/07 12:48:41;;;;;;;6.57;2.35;;;22.80;99.90;;;;;;4986057;28;20255;-73
2023/08/07 12:51:08;;;;;;;2.72;2.53;;;23.50;99.90;;;;;;5009379;28;20200;-71
2023/08/07 12:53:35;;;;;;;3.28;2.72;;;23.00;99.90;;;;;;5017583;28;20200;-71
2023/08/07 12:56:03;;;;;;;2.75;2.38;;;22.60;99.90;;;;;;5003354;28;20201;-73
2023/08/07 12:58:30;;;;;;;5.40;2.70;;;22.80;99.90;;;;;;5010904;28;20965;-72
2023/08/07 13:00:57;;;;;;;2.55;2.30;;;23.00;99.90;;;;;;5011722;28;20196;-71
2023/08/07 13:03:24;;;;;;;3.92;2.17;;;23.40;99.90;;;;;;4997643;28;20258;-72
2023/08/07 13:05:52;;;;;;;3.50;2.25;;;22.90;99.90;;;;;;5013627;28;20188;-73
2023/08/07 13:08:19;;;;;;;5.75;2.40;;;22.30;99.90;;;;;;5016802;28;20564;-70
2023/08/07 13:10:46;;;;;;;2.40;2.20;;;22.30;99.90;;;;;;5013423;28;20676;-71
2023/08/07 13:13:16;;;;;;;2.63;1.98;;;22.60;99.90;;;;;;5016263;28;20595;-72
2023/08/07 13:15:43;;;;;;;3.03;2.30;;;22.40;99.90;;;;;;5013259;28;20241;-70
2023/08/07 13:18:10;;;;;;;3.13;2.10;;;22.30;99.90;;;;;;5005294;28;20558;-71
2023/08/07 13:20:37;;;;;;;2.58;2.25;;;22.20;99.90;;;;;;4996347;28;20192;-70
2023/08/07 13:23:06;;;;;;;4.60;2.10;;;22.30;99.90;;;;;;4981642;28;20296;-71
2023/08/07 13:25:33;;;;;;;5.35;2.40;;;22.30;99.90;;;;;;5015719;28;20856;-70
2023/08/07 13:28:04;;;;;;;2.90;2.20;;;22.20;99.90;;;;;;4992039;28;20622;-70
2023/08/07 13:30:31;;;;;;;2.78;2.13;;;22.10;99.90;;;;;;5014637;28;20813;-70
2023/08/07 13:33:03;;;;;;;2.17;1.95;;;22.30;99.90;;;;;;4995986;28;20204;-70
2023/08/07 13:35:31;;;;;;;4.32;2.50;;;22.20;99.90;;;;;;5010012;28;20707;-70
2023/08/07 13:37:58;;;;;;;4.18;2.58;;;22.30;99.90;;;;;;4990810;28;20196;-71
2023/08/07 13:40:25;;;;;;;3.72;2.40;;;22.60;99.90;;;;;;4981835;28;20197;-69
2023/08/07 13:42:53;;;;;;;3.13;2.30;;;23.00;99.90;;;;;;4989936;28;20204;-69
2023/08/07 13:45:20;;;;;;;4.22;2.45;;;22.70;99.90;;;;;;4988665;28;20554;-69
2023/08/07 13:47:47;;;;;;;3.08;2.22;;;22.10;99.90;;;;;;5003298;28;20767;-70
2023/08/07 13:50:15;;;;;;;6.03;2.33;;;22.30;99.90;;;;;;4982165;28;20558;-75
2023/08/07 13:52:42;;;;;;;2.45;2.22;;;22.20;99.90;;;;;;4997107;28;20228;-72
2023/08/07 13:55:09;;;;;;;3.15;2.20;;;22.30;99.90;;;;;;4987830;28;20656;-70
2023/08/07 13:57:36;;;;;;;2.75;2.00;;;22.30;99.90;;;;;;5003362;28;20650;-71
2023/08/07 14:00:06;;;;;;;4.13;2.67;;;21.80;99.90;;;;;;4990784;28;20210;-71
2023/08/07 14:02:34;;;;;;;7.32;2.60;;;22.00;99.90;;;;;;5006665;28;20227;-70
2023/08/07 14:05:02;;;;;;;6.78;2.80;;;22.10;99.90;;;;;;4986238;28;20223;-70
2023/08/07 14:07:29;;;;;;;6.28;2.40;;;22.20;99.90;;;;;;5006884;28;21815;-71
2023/08/07 14:09:56;;;;;;;4.65;2.67;;;21.90;99.90;;;;;;4988196;28;20205;-70
2023/08/07 14:12:23;;;;;;;6.47;2.58;;;21.50;99.90;;;;;;4989402;28;20276;-70
2023/08/07 14:14:50;;;;;;;4.68;3.08;;;21.40;99.90;;;;;;5004149;28;21150;-69
2023/08/07 14:17:17;;;;;;;6.10;3.70;;;21.30;99.90;;;;;;5004197;28;20236;-69
2023/08/07 14:19:44;;;;;;;5.65;2.80;;;21.30;99.90;;;;;;4985060;28;20213;-70
2023/08/07 14:22:11;;;;;;;3.85;2.60;;;21.20;99.90;;;;;;5005127;28;20664;-70
2023/08/07 14:24:38;;;;;;;2.30;2.13;;;21.20;99.90;;;;;;4999434;28;20193;-69
2023/08/07 14:27:05;;;;;;;4.10;2.15;;;21.10;99.90;;;;;;5017251;28;20212;-74
2023/08/07 14:29:32;;;;;;;5.40;2.38;;;20.80;99.90;;;;;;4998560;28;20212;-72
2023/08/07 14:32:00;;;;;;;5.57;2.60;;;20.50;99.90;;;;;;5013603;28;20207;-75
2023/08/07 14:34:27;;;;;;;2.50;2.10;;;19.90;99.90;;;;;;5014894;28;20212;-69
2023/08/07 14:36:54;;;;;;;4.20;2.10;;;19.20;99.90;;;;;;5003002;28;20196;-70
2023/08/07 14:39:21;;;;;;;5.28;2.67;;;19.10;99.90;;;;;;5013971;28;20714;-72
2023/08/07 14:41:52;;;;;;;2.50;2.05;;;18.90;99.90;;;;;;5012422;28;21172;-68
2023/08/07 14:44:19;;;;;;;4.75;2.10;;;18.80;99.90;;;;;;4997170;28;20558;-70
2023/08/07 14:46:46;;;;;;;3.63;1.98;;;18.90;99.90;;;;;;5014750;28;20201;-70
2023/08/07 14:49:13;;;;;;;2.05;1.75;;;19.00;99.90;;;;;;4988279;28;20232;-69
2023/08/07 14:51:41;;;;;;;5.40;2.88;;;19.20;99.90;;;;;;5011084;28;20201;-72
2023/08/07 14:54:09;;;;;;;3.97;2.00;;;19.50;99.90;;;;;;5005113;28;20256;-71
2023/08/07 14:56:36;;;;;;;3.38;1.92;;;20.00;99.90;;;;;;5001455;28;20205;-71
2023/08/07 14:59:04;;;;;;;4.95;1.98;;;20.20;99.90;;;;;;5001029;28;20217;-71
2023/08/07 15:01:31;;;;;;;3.67;2.03;;;20.10;99.90;;;;;;5005639;28;20197;-71
2023/08/07 15:03:58;;;;;;;6.65;2.00;;;19.90;99.90;;;;;;5004797;28;20699;-74
2023/08/07 15:06:25;;;;;;;4.60;2.30;;;19.90;99.90;;;;;;4985613;28;20207;-71
2023/08/07 15:08:52;;;;;;;6.75;2.05;;;19.80;99.90;;;;;;5002279;28;20213;-71
2023/08/07 15:11:19;;;;;;;3.85;1.90;;;19.70;99.90;;;;;;5002982;28;20786;-72
2023/08/07 15:13:47;;;;;;;3.67;1.80;;;19.90;99.90;;;;;;5005434;28;20205;-73
2023/08/07 15:16:14;;;;;;;2.75;2.10;;;20.20;99.90;;;;;;5002455;28;20221;-71
2023/08/07 15:18:41;;;;;;;10.25;2.10;;;20.40;99.90;;;;;;4992947;28;20278;-73
2023/08/07 15:21:08;;;;;;;3.83;2.40;;;20.50;99.90;;;;;;5004072;28;20201;-73
2023/08/07 15:23:35;;;;;;;2.53;2.22;;;20.40;99.90;;;;;;5002835;28;20197;-71
2023/08/07 15:26:02;;;;;;;3.47;2.40;;;20.30;99.90;;;;;;5004119;28;20200;-71
2023/08/07 15:28:29;;;;;;;8.60;3.13;;;20.20;99.90;;;;;;4986659;28;20217;-71
2023/08/07 15:30:56;;;;;;;2.75;2.15;;;20.00;99.90;;;;;;4990288;28;20763;-71
2023/08/07 15:33:23;;;;;;;2.92;2.20;;;19.90;99.90;;;;;;4990570;28;20202;-72
2023/08/07 15:35:54;;;;;;;5.53;2.33;;;19.90;99.90;;;;;;5009135;28;20673;-70
2023/08/07 15:38:21;;;;;;;3.72;2.20;;;20.00;99.90;;;;;;5006119;28;20882;-71
2023/08/07 15:40:49;;;;;;;6.32;2.75;;;20.40;99.90;;;;;;5008798;28;20201;-70
2023/08/07 15:43:16;;;;;;;6.85;4.10;;;20.60;99.90;;;;;;5005726;28;20193;-70
2023/08/07 15:45:49;;;;;;;8.02;4.07;;;20.80;99.90;;;;;;5002758;28;20201;-70
2023/08/07 15:48:19;;;;;;;9.75;4.90;;;20.60;99.90;;;;;;5010639;28;21535;-71
2023/08/07 15:50:47;;;;;;;12.02;4.47;;;20.50;99.90;;;;;;5010488;28;20629;-71
2023/08/07 15:53:14;;;;;;;6.78;3.83;;;20.40;99.90;;;;;;5003629;28;20752;-71
2023/08/07 15:55:41;;;;;;;6.75;3.28;;;20.10;99.90;;;;;;4988659;28;20581;-70
2023/08/07 15:58:08;;;;;;;5.95;3.42;;;20.00;99.90;;;;;;5003457;28;20676;-66
2023/08/07 16:00:36;;;;;;;4.78;3.10;;;20.20;99.90;;;;;;4987943;28;20275;-66
2023/08/07 16:03:05;;;;;;;5.90;2.80;;;20.70;99.90;;;;;;4988038;28;20212;-66
2023/08/07 16:05:33;;;;;;;3.85;2.35;;;20.90;99.90;;;;;;5006020;28;20592;-66
2023/08/07 16:08:00;;;;;;;2.85;2.20;;;21.00;99.90;;;;;;5005186;28;20679;-66
2023/08/07 16:10:27;;;;;;;3.47;2.63;;;20.90;99.90;;;;;;5005458;28;20719;-67
2023/08/07 16:12:55;;;;;;;2.60;2.20;;;20.60;99.90;;;;;;4988020;28;20613;-66
2023/08/07 16:15:23;;;;;;;5.05;2.15;;;20.60;99.90;;;;;;5002428;28;20287;-65
2023/08/07 16:17:50;;;;;;;6.03;2.67;;;20.60;99.90;;;;;;4986485;28;20722;-67
2023/08/07 16:20:19;;;;;;;5.20;2.50;;;20.40;99.90;;;;;;4985713;28;20221;-66
2023/08/07 16:22:46;;;;;;;2.45;2.03;;;20.20;99.90;;;;;;5009293;28;20196;-66
2023/08/07 16:25:13;;;;;;;3.45;2.17;;;20.00;99.90;;;;;;5006594;28;20197;-66
2023/08/07 16:27:40;;;;;;;3.35;2.47;;;19.80;99.90;;;;;;4981814;28;20213;-66
2023/08/07 16:30:08;;;;;;;4.72;2.22;;;19.80;99.90;;;;;;5002456;28;20205;-67
2023/08/07 16:32:37;;;;;;;3.03;2.20;;;19.80;99.90;;;;;;4988173;28;20699;-67
2023/08/07 16:35:05;;;;;;;3.60;2.10;;;19.90;99.90;;;;;;4986079;28;20307;-73
2023/08/07 16:37:32;;;;;;;2.72;2.38;;;19.80;99.90;;;;;;5004328;28;20209;-73
2023/08/07 16:39:59;;;;;;;2.83;2.15;;;19.70;99.90;;;;;;5005878;28;20238;-73
2023/08/07 16:42:27;;;;;;;2.58;2.20;;;19.70;99.90;;;;;;5006095;28;20197;-67
2023/08/07 16:44:54;;;;;;;2.63;1.75;;;19.70;99.90;;;;;;5004661;28;20193;-67
2023/08/07 16:47:22;;;;;;;6.07;2.40;;;19.70;99.90;;;;;;5002745;28;20204;-67
2023/08/07 16:49:50;;;;;;;3.08;1.95;;;19.60;99.90;;;;;;4988078;28;20228;-66
2023/08/07 16:52:17;;;;;;;2.58;2.00;;;19.50;99.90;;;;;;4985823;28;20299;-69
2023/08/07 16:54:48;;;;;;;4.82;2.85;;;19.50;99.90;;;;;;5001272;28;20699;-65
2023/08/07 16:57:16;;;;;;;2.78;1.95;;;19.50;99.90;;;;;;4989205;28;20193;-67
2023/08/07 16:59:46;;;;;;;6.65;2.47;;;19.60;99.90;;;;;;4986870;28;20211;-68
2023/08/07 17:02:14;;;;;;;2.88;2.08;;;19.60;99.90;;;;;;5006967;28;20292;-73
2023/08/07 17:04:41;;;;;;;2.90;2.15;;;19.40;99.90;;;;;;5006387;28;20692;-73
2023/08/07 17:07:09;;;;;;;4.13;2.53;;;19.40;99.90;;;;;;5009170;28;20195;-71
2023/08/07 17:09:36;;;;;;;4.68;2.20;;;19.70;99.90;;;;;;4996061;28;20262;-72
2023/08/07 17:12:04;;;;;;;5.35;2.28;;;19.80;99.90;;;;;;5001868;28;20200;-70
2023/08/07 17:14:31;;;;;;;4.70;2.53;;;19.80;99.90;;;;;;5003731;28;20645;-67
2023/08/07 17:16:58;;;;;;;6.32;2.30;;;19.60;99.90;;;;;;4968831;28;20233;-66
2023/08/07 17:19:25;;;;;;;7.40;3.28;;;19.50;99.90;;;;;;4985301;28;20685;-67
2023/08/07 17:21:53;;;;;;;4.32;2.38;;;19.40;99.90;;;;;;4994505;28;20211;-73
2023/08/07 17:24:19;;;;;;;2.35;2.08;;;19.10;99.90;;;;;;4988927;28;20193;-71
2023/08/07 17:26:47;;;;;;;2.90;1.95;;;18.90;99.90;;;;;;4987640;28;20276;-73
2023/08/07 17:29:14;;;;;;;2.05;1.95;;;18.70;99.90;;;;;;4987595;28;20669;-73
2023/08/07 17:31:41;;;;;;;3.50;2.25;;;18.50;99.90;;;;;;4993155;28;20190;-73
2023/08/07 17:34:08;;;;;;;3.25;2.42;;;18.50;99.90;;;;;;4993108;28;20201;-72
2023/08/07 17:36:34;;;;;;;4.57;2.70;;;18.50;99.90;;;;;;4995507;28;20674;-71
2023/08/07 17:39:02;;;;;;;5.15;2.95;;;18.40;99.90;;;;;;4984326;28;20197;-73
2023/08/07 17:41:29;;;;;;;3.97;2.20;;;18.40;99.90;;;;;;4981342;28;20201;-72
2023/08/07 17:43:56;;;;;;;6.75;3.50;;;18.40;99.90;;;;;;4987160;28;20642;-70
2023/08/07 17:46:23;;;;;;;5.32;2.90;;;18.30;99.90;;;;;;4986556;28;20205;-73
2023/08/07 17:48:52;;;;;;;4.50;2.05;;;18.30;99.90;;;;;;4986114;28;20296;-73
2023/08/07 17:51:19;;;;;;;7.13;2.30;;;18.20;99.90;;;;;;4979936;28;20202;-71
2023/08/07 17:53:47;;;;;;;4.22;2.40;;;18.30;99.90;;;;;;4984162;28;20198;-69
2023/08/07 17:56:14;;;;;;;4.40;2.15;;;18.30;99.90;;;;;;4987275;28;20201;-68
2023/08/07 17:58:41;;;;;;;2.20;2.00;;;18.20;99.90;;;;;;4983545;28;20201;-68
2023/08/07 18:01:08;;;;;;;3.03;2.45;;;18.20;99.90;;;;;;4983164;28;20265;-68
2023/08/07 18:03:36;;;;;;;4.45;1.80;;;18.20;99.90;;;;;;4982454;28;20281;-69
2023/08/07 18:06:03;;;;;;;6.47;2.08;;;18.10;99.90;;;;;;4985664;28;20192;-68
2023/08/07 18:08:30;;;;;;;4.00;2.13;;;18.10;99.90;;;;;;4985887;28;20198;-71
2023/08/07 18:10:57;;;;;;;3.08;2.08;;;18.00;99.90;;;;;;4981923;28;20834;-71
2023/08/07 18:13:24;;;;;;;6.35;2.10;;;17.90;99.90;;;;;;4984254;28;20391;-70
2023/08/07 18:15:51;;;;;;;5.97;2.63;;;17.80;99.90;;;;;;4998013;28;20239;-70
2023/08/07 18:18:18;;;;;;;2.53;2.08;;;17.70;99.90;;;;;;5026111;28;20353;-69
2023/08/07 18:20:45;;;;;;;5.68;2.22;;;17.70;99.90;;;;;;5010926;28;20742;-69
2023/08/07 18:23:14;;;;;;;2.38;1.95;;;17.70;99.90;;;;;;5021594;28;20200;-69
2023/08/07 18:25:41;;;;;;;2.40;2.15;;;17.70;99.90;;;;;;5010307;28;20192;-70
2023/08/07 18:28:08;;;;;;;3.65;2.10;;;17.80;99.90;;;;;;5026459;28;20200;-68
2023/08/07 18:30:35;;;;;;;2.60;2.05;;;17.80;99.90;;;;;;5025894;28;20247;-68
2023/08/07 18:33:02;;;;;;;4.18;2.15;;;17.90;99.90;;;;;;5026667;28;20219;-67
2023/08/07 18:35:29;;;;;;;4.25;2.00;;;17.90;99.90;;;;;;5026613;28;20520;-68
2023/08/07 18:37:57;;;;;;;2.65;2.35;;;18.00;99.90;;;;;;5022909;28;20486;-67
2023/08/07 18:40:24;;;;;;;3.70;2.15;;;18.00;99.90;;;;;;5023562;28;20592;-68
2023/08/07 18:42:51;;;;;;;2.22;1.80;;;17.90;99.90;;;;;;5023754;28;20225;-68
2023/08/07 18:45:18;;;;;;;2.58;1.80;;;17.90;99.90;;;;;;5027181;28;20567;-68
2023/08/07 18:47:45;;;;;;;2.10;1.95;;;17.70;99.90;;;;;;5023475;28;20196;-68
2023/08/07 18:50:12;;;;;;;5.60;2.30;;;17.50;99.90;;;;;;5024024;28;20204;-69
2023/08/07 18:52:39;;;;;;;5.18;2.65;;;17.30;99.90;;;;;;5025204;28;20214;-68
2023/08/07 18:55:07;;;;;;;3.15;2.60;;;17.30;99.90;;;;;;5010740;28;20211;-68
2023/08/07 18:57:34;;;;;;;4.45;2.30;;;17.20;99.90;;;;;;5023324;28;20211;-68
2023/08/07 19:00:01;;;;;;;4.07;2.85;;;17.10;99.90;;;;;;5024802;28;20212;-68
2023/08/07 19:02:28;;;;;;;4.70;2.50;;;17.00;99.90;;;;;;5023857;28;20702;-68
2023/08/07 19:04:56;;;;;;;5.38;2.53;;;16.80;99.90;;;;;;5007082;28;20978;-70
2023/08/07 19:07:22;;;;;;;20.05;8.10;;;16.70;99.90;;;;;;5023387;28;20277;-71
2023/08/07 19:09:50;;;;;;;7.30;3.75;;;16.60;99.90;;;;;;5023421;28;20196;-70
2023/08/07 19:12:17;;;;;;;6.00;3.20;;;16.40;99.90;;;;;;5021580;28;20224;-67
2023/08/07 19:14:44;;;;;;;3.58;3.22;;;16.30;99.90;;;;;;5019322;28;20299;-71
2023/08/07 19:17:11;;;;;;;4.13;3.15;;;16.30;99.90;;;;;;5021003;28;20227;-68
2023/08/07 19:19:38;;;;;;;7.53;3.30;;;16.20;99.90;;;;;;5025189;28;20189;-68
2023/08/07 19:22:05;;;;;;;6.63;3.60;;;16.10;99.90;;;;;;5022172;28;20271;-68
2023/08/07 19:24:32;;;;;;;2.70;2.28;;;16.10;99.90;;;;;;5021931;28;20668;-68
2023/08/07 19:26:59;;;;;;;6.60;2.72;;;16.00;99.90;;;;;;5020625;28;20203;-68
2023/08/07 19:29:26;;;;;;;4.20;3.17;;;16.10;99.90;;;;;;5025195;28;20599;-67
2023/08/07 19:31:53;;;;;;;4.03;2.50;;;16.20;99.90;;;;;;5023019;28;21606;-68
2023/08/07 19:34:21;;;;;;;4.55;2.63;;;16.20;99.90;;;;;;5023053;28;20219;-70
2023/08/07 19:36:50;;;;;;;3.10;2.53;;;16.10;99.90;;;;;;5021682;28;20192;-69
2023/08/07 19:39:17;;;;;;;2.45;2.00;;;16.10;99.90;;;;;;5025473;28;20188;-71
2023/08/07 19:41:44;;;;;;;2.92;2.33;;;16.10;99.90;;;;;;5021948;28;20393;-67
2023/08/07 19:44:11;;;;;;;4.88;2.33;;;16.00;99.90;;;;;;5023387;28;20206;-65
2023/08/07 19:46:38;;;;;;;2.65;2.28;;;15.90;99.90;;;;;;5025714;28;20667;-71
2023/08/07 19:49:05;;;;;;;3.65;2.30;;;15.80;99.90;;;;;;5020524;28;20200;-72
2023/08/07 19:51:32;;;;;;;3.92;2.03;;;15.70;99.90;;;;;;5022159;28;20611;-71
2023/08/07 19:54:00;;;;;;;6.65;2.55;;;15.60;99.90;;;;;;5023138;28;20208;-71
2023/08/07 19:56:29;;;;;;;4.50;2.40;;;15.60;99.90;;;;;;5025928;28;20232;-73
2023/08/07 19:59:01;;;;;;;4.03;2.35;;;15.50;99.90;;;;;;5023932;28;20197;-71
2023/08/07 20:01:31;;;;;;;2.72;2.42;;;15.40;99.90;;;;;;5026560;28;20689;-73
2023/08/07 20:03:58;;;;;;;2.47;2.00;;;15.30;99.90;;;;;;5020562;28;20717;-72
2023/08/07 20:06:34;;;;;;;6.72;2.10;;;15.30;99.90;;;;;;5019340;28;20569;-72
2023/08/07 20:09:02;;;;;;;3.88;2.53;;;15.20;99.90;;;;;;5005324;28;20689;-72
2023/08/07 20:11:37;;;;;;;3.33;2.10;;;15.10;99.90;;;;;;5027660;28;20278;-73
2023/08/07 20:14:04;;;;;;;3.17;1.90;;;15.10;99.90;;;;;;5021848;28;20703;-72
2023/08/07 20:16:32;;;;;;;4.27;2.00;;;15.00;99.90;;;;;;5017043;28;20249;-70
2023/08/07 20:18:59;;;;;;;4.03;1.80;;;15.10;99.90;;;;;;5000978;28;20208;-71
2023/08/07 20:21:27;;;;;;;9.90;2.65;;;15.10;99.90;;;;;;5005033;28;20225;-70
2023/08/07 20:23:54;;;;;;;2.25;1.92;;;15.00;99.90;;;;;;5017930;28;20653;-69
2023/08/07 20:26:21;;;;;;;2.15;1.95;;;14.90;99.90;;;;;;5008700;28;20786;-71
2023/08/07 20:28:48;;;;;;;4.10;2.30;;;14.90;99.90;;;;;;5001674;28;20859;-68
2023/08/07 20:31:15;;;;;;;2.50;1.87;;;14.90;99.90;;;;;;5005468;28;20590;-69
2023/08/07 20:33:43;;;;;;;2.43;2.10;;;14.80;99.90;;;;;;5006328;28;20203;-67
2023/08/07 20:36:10;;;;;;;3.10;2.37;;;14.80;99.90;;;;;;5003409;28;20193;-68
2023/08/07 20:38:37;;;;;;;4.23;3.10;;;14.70;99.90;;;;;;5022129;28;20554;-70
2023/08/07 20:41:04;;;;;;;2.15;1.70;;;14.70;99.90;;;;;;5009399;28;20212;-75
2023/08/07 20:43:31;;;;;;;4.93;2.50;;;14.70;99.90;;;;;;5003017;28;20200;-67
2023/08/07 20:45:59;;;;;;;5.67;2.77;;;14.70;99.90;;;;;;5005245;28;20193;-69
2023/08/07 20:48:26;;;;;;;2.73;2.13;;;14.60;99.90;;;;;;5019772;28;20211;-70
2023/08/07 20:50:53;;;;;;;4.47;2.20;;;14.50;99.90;;;;;;5020377;28;20208;-69
2023/08/07 20:53:21;;;;;;;3.20;2.57;;;14.50;99.90;;;;;;5001374;28;20204;-69
2023/08/07 20:55:48;;;;;;;3.37;2.63;;;14.40;99.90;;;;;;5005059;28;20209;-68
2023/08/07 20:58:15;;;;;;;8.37;2.50;;;14.40;99.90;;;;;;5005961;28;20207;-69
2023/08/07 21:00:42;;;;;;;2.70;2.23;;;14.40;99.90;;;;;;5002676;28;20247;-68
2023/08/07 21:03:10;;;;;;;2.40;1.87;;;14.50;99.90;;;;;;5005579;28;20185;-67
2023/08/07 21:05:37;;;;;;;4.90;2.60;;;14.40;99.90;;;;;;5018984;28;20691;-67
2023/08/07 21:08:04;;;;;;;3.37;2.00;;;14.30;99.90;;;;;;4998686;28;20270;-66
2023/08/07 21:10:31;;;;;;;3.83;1.80;;;14.30;99.90;;;;;;5006494;28;20200;-67
2023/08/07 21:12:58;;;;;;;2.73;2.33;;;14.20;99.90;;;;;;5003600;28;20571;-67
2023/08/07 21:15:25;;;;;;;3.60;2.20;;;14.10;99.90;;;;;;5006394;28;20290;-69
2023/08/07 21:17:52;;;;;;;4.33;1.80;;;14.10;99.90;;;;;;5027660;28;20207;-69
2023/08/07 21:20:19;;;;;;;6.77;1.97;;;14.10;99.90;;;;;;5028521;28;20298;-67
2023/08/07 21:22:46;;;;;;;3.93;2.13;;;14.00;99.90;;;;;;5032087;28;20200;-70
2023/08/07 21:25:13;;;;;;;2.93;2.00;;;13.90;99.90;;;;;;5012893;28;20250;-70
2023/08/07 21:27:40;;;;;;;2.87;2.00;;;14.00;99.90;;;;;;5024699;28;20259;-63
2023/08/07 21:30:08;;;;;;;3.53;1.80;;;13.90;99.90;;;;;;5030408;28;20200;-65
2023/08/07 21:32:34;;;;;;;3.20;1.90;;;13.90;99.90;;;;;;5016230;28;20199;-66
2023/08/07 21:35:01;;;;;;;2.50;2.10;;;13.80;99.90;;;;;;5017226;28;20195;-67
2023/08/07 21:37:32;;;;;;;3.57;2.40;;;13.80;99.90;;;;;;5033688;28;20189;-67
2023/08/07 21:40:00;;;;;;;3.17;2.27;;;13.70;99.90;;;;;;5025971;28;20184;-67
2023/08/07 21:42:28;;;;;;;3.27;2.10;;;13.60;99.90;;;;;;5031474;28;20191;-66
2023/08/07 21:44:55;;;;;;;4.20;2.37;;;13.60;99.90;;;;;;5013901;28;20204;-67
2023/08/07 21:47:22;;;;;;;5.80;3.70;;;13.70;99.90;;;;;;5035287;28;20193;-67
2023/08/07 21:49:49;;;;;;;3.30;2.10;;;13.60;99.90;;;;;;5015128;28;20193;-68
2023/08/07 21:52:16;;;;;;;3.57;1.83;;;13.60;99.90;;;;;;5015696;28;20200;-71
2023/08/07 21:54:43;;;;;;;2.97;1.83;;;13.60;99.90;;;;;;5017261;28;20266;-71
2023/08/07 21:57:10;;;;;;;4.17;2.57;;;13.50;99.90;;;;;;5021024;28;20278;-67
2023/08/07 21:59:37;;;;;;;3.53;1.90;;;13.40;99.90;;;;;;5034292;28;20836;-67
2023/08/07 22:02:05;;;;;;;5.57;2.60;;;13.40;99.90;;;;;;5034985;28;20699;-67
2023/08/07 22:04:32;;;;;;;3.80;2.07;;;13.40;99.90;;;;;;5031392;28;20220;-65